Time;durP1;ratioP1;P1;durP2;ratioP2;P2;SDS_P1;SDS_P2;PMS_P1;PMS_P2;Temp;Humidity;BMP_temperature;BMP_pressure;BME280_temperature;BME280_humidity;BME280_pressure;Samples;Min_cycle;Max_cycle;Signal;HPM_P1;HPM_P2
2023/08/16 00:02:02;;;;;;;10.43;8.80;;;;;;;;;;5033650;28;20028;-73
2023/08/16 00:04:27;;;;;;;10.75;8.82;;;;;;;24.13;100.00;103163.88;5051349;28;20488;-73
2023/08/16 00:06:53;;;;;;;11.55;8.65;;;;;;;24.18;100.00;103175.81;5051600;28;20124;-74
2023/08/16 00:09:20;;;;;;;10.27;8.68;;;;;;;24.14;100.00;103199.38;5051885;28;20039;-74
2023/08/16 00:11:45;;;;;;;11.45;9.13;;;;;;;24.20;100.00;103241.66;5051798;28;20086;-75
2023/08/16 00:14:10;;;;;;;12.63;8.88;;;;;;;24.21;100.00;103239.88;5033149;28;20029;-74
2023/08/16 00:16:36;;;;;;;11.52;9.00;;;;;;;23.68;100.00;103190.41;5034154;28;20036;-75
2023/08/16 00:19:01;;;;;;;12.00;8.35;;;;;;;23.87;100.00;103175.91;5051922;28;20040;-75
2023/08/16 00:21:27;;;;;;;10.18;8.75;;;;;;;24.22;100.00;103223.38;5051305;28;20036;-73
2023/08/16 00:23:52;;;;;;;9.43;8.20;;;;;;;24.27;100.00;103260.50;5050973;28;20504;-74
2023/08/16 00:26:18;;;;;;;12.50;8.68;;;;;;;23.81;100.00;103191.72;5050957;28;20423;-74
2023/08/16 00:28:45;;;;;;;12.77;9.00;;;;;;;23.99;100.00;103247.47;5051705;28;20029;-74
2023/08/16 00:31:11;;;;;;;9.48;8.32;;;;;;;23.96;100.00;103229.41;5051563;28;20112;-74
2023/08/16 00:33:36;;;;;;;10.43;9.23;;;;;;;24.13;100.00;103276.53;5057725;28;20119;-74
2023/08/16 00:36:02;;;;;;;11.65;8.32;;;;;;;24.25;100.00;103288.31;5070912;28;20033;-74
2023/08/16 00:38:27;;;;;;;13.18;9.07;;;;;;;23.74;100.00;103244.81;5071305;28;20036;-73
2023/08/16 00:40:59;;;;;;;14.80;8.70;;;;;;;23.76;100.00;103239.56;5071059;28;20040;-73
2023/08/16 00:43:25;;;;;;;12.35;8.85;;;;;;;24.24;100.00;103303.09;5052532;28;20043;-73
2023/08/16 00:45:50;;;;;;;11.45;8.77;;;;;;;24.34;100.00;103285.44;5071179;28;20483;-73
2023/08/16 00:48:17;;;;;;;10.82;8.90;;;;;;;23.89;100.00;103257.31;5071095;28;20055;-73
2023/08/16 00:50:44;;;;;;;11.98;8.70;;;;;;;23.99;100.00;103237.94;5070945;28;20029;-73
2023/08/16 00:53:11;;;;;;;13.43;8.80;;;;;;;23.92;100.00;103186.19;5071061;28;20025;-73
2023/08/16 00:55:37;;;;;;;11.27;8.30;;;;;;;23.95;100.00;103162.66;5071112;28;20520;-73
2023/08/16 00:58:03;;;;;;;10.13;8.45;;;;;;;24.15;100.00;103157.69;5053137;28;20566;-73
2023/08/16 01:00:29;;;;;;;11.45;8.50;;;;;;;24.01;100.00;103150.31;5053003;28;20033;-74
2023/08/16 01:02:54;;;;;;;13.98;8.40;;;;;;;24.42;100.00;103195.81;5071269;28;20086;-74
2023/08/16 01:05:21;;;;;;;11.70;8.63;;;;;;;23.87;100.00;103129.13;5070906;28;20127;-74
2023/08/16 01:07:46;;;;;;;11.20;9.10;;;;;;;23.74;100.00;103142.56;5071123;28;20055;-74
2023/08/16 01:10:12;;;;;;;10.85;8.88;;;;;;;24.12;100.00;103216.78;5053212;28;20107;-74
2023/08/16 01:12:47;;;;;;;13.77;9.10;;;;;;;24.11;100.00;103217.69;5070888;28;20032;-74
2023/08/16 01:15:15;;;;;;;11.50;8.52;;;;;;;24.25;100.00;103202.47;5071328;28;20020;-74
2023/08/16 01:17:43;;;;;;;9.65;8.50;;;;;;;24.03;100.00;103189.31;5071415;28;20024;-74
2023/08/16 01:20:10;;;;;;;11.65;9.27;;;;;;;24.10;100.00;103177.81;5052885;28;20495;-73
2023/08/16 01:23:05;;;;;;;10.68;9.07;;;;;;;23.64;100.00;103125.56;5052884;28;20025;-73
2023/08/16 01:25:49;;;;;;;10.82;9.10;;;;;;;23.76;100.00;103154.63;5070273;28;20037;-73
2023/08/16 01:28:16;;;;;;;12.48;8.55;;;;;;;24.10;100.00;103232.44;5071004;28;20111;-73
2023/08/16 01:30:42;;;;;;;12.50;8.93;;;;;;;23.99;100.00;103243.13;5070904;28;20054;-73
2023/08/16 01:33:09;;;;;;;13.48;8.68;;;;;;;23.93;100.00;103284.06;5070999;28;20033;-73
2023/08/16 01:35:36;;;;;;;10.98;8.60;;;;;;;23.87;100.00;103315.47;5071084;28;20036;-73
2023/08/16 01:38:03;;;;;;;14.18;9.07;;;;;;;23.72;100.00;103329.78;5074557;28;20058;-73
2023/08/16 01:40:41;;;;;;;12.52;8.77;;;;;;;23.97;100.00;103369.75;5056611;28;20025;-73
2023/08/16 01:43:10;;;;;;;13.23;9.15;;;;;;;23.47;100.00;103255.16;5074537;28;20034;-73
2023/08/16 01:45:35;;;;;;;12.15;8.95;;;;;;;24.06;100.00;103317.53;5074343;28;20059;-74
2023/08/16 01:48:02;;;;;;;9.98;8.63;;;;;;;23.87;100.00;103251.31;5058477;28;20056;-74
2023/08/16 01:50:27;;;;;;;11.55;9.38;;;;;;;23.69;100.00;103244.06;5076536;28;20036;-74
2023/08/16 01:52:53;;;;;;;11.93;9.35;;;;;;;23.96;100.00;103291.78;5074485;28;20437;-74
2023/08/16 01:55:19;;;;;;;12.82;9.30;;;;;;;23.99;100.00;103284.75;5056274;28;20094;-74
2023/08/16 01:57:45;;;;;;;9.10;8.20;;;;;;;23.74;100.00;103226.63;5074147;28;20082;-74
2023/08/16 02:00:11;;;;;;;11.80;8.82;;;;;;;23.61;100.00;103206.25;5073440;28;20483;-73
2023/08/16 02:02:37;;;;;;;13.75;9.23;;;;;;;23.86;100.00;103186.38;5073700;28;20056;-73
2023/08/16 02:05:02;;;;;;;13.25;8.50;;;;;;;23.68;100.00;103080.38;5073583;28;20088;-73
2023/08/16 02:07:28;;;;;;;13.40;9.13;;;;;;;23.51;100.00;103005.56;5073619;28;20446;-73
2023/08/16 02:09:53;;;;;;;11.88;8.55;;;;;;;23.80;100.00;103018.47;5073848;28;20078;-73
2023/08/16 02:12:19;;;;;;;12.88;8.82;;;;;;;24.34;100.00;103048.66;5073519;28;20032;-73
2023/08/16 02:14:44;;;;;;;10.52;8.60;;;;;;;23.83;100.00;102940.34;5073630;28;20032;-73
2023/08/16 02:17:09;;;;;;;11.82;9.13;;;;;;;23.66;100.00;102908.06;5072761;28;20041;-73
2023/08/16 02:19:35;;;;;;;13.27;8.82;;;;;;;23.95;100.00;102895.72;5073504;28;20410;-73
2023/08/16 02:22:00;;;;;;;13.23;8.80;;;;;;;23.88;100.00;102894.25;5055594;28;20039;-73
2023/08/16 02:24:26;;;;;;;13.20;9.00;;;;;;;24.04;100.00;102912.78;5073468;28;20088;-73
2023/08/16 02:26:51;;;;;;;10.60;8.63;;;;;;;24.03;100.00;102926.66;5073687;28;20027;-73
2023/08/16 02:29:17;;;;;;;10.63;8.45;;;;;;;23.98;100.00;102933.75;5072617;28;20145;-73
2023/08/16 02:31:42;;;;;;;11.45;9.00;;;;;;;23.95;100.00;102933.84;5072588;28;20017;-73
2023/08/16 02:34:08;;;;;;;10.27;8.93;;;;;;;24.19;100.00;102916.53;5055326;28;20028;-74
2023/08/16 02:36:34;;;;;;;11.75;9.45;;;;;;;24.05;100.00;102940.44;5055523;28;20498;-73
2023/08/16 02:39:00;;;;;;;11.32;8.20;;;;;;;24.04;100.00;102934.44;5055577;28;20467;-73
2023/08/16 02:41:25;;;;;;;12.30;9.20;;;;;;;23.50;100.00;102863.59;5055127;28;20036;-74
2023/08/16 02:43:51;;;;;;;11.38;8.68;;;;;;;24.04;100.00;102994.25;5073199;28;20031;-74
2023/08/16 02:46:16;;;;;;;12.02;9.13;;;;;;;23.91;100.00;103011.13;5072693;28;20566;-73
2023/08/16 02:48:41;;;;;;;13.70;8.80;;;;;;;24.13;100.00;102994.81;5071400;28;20048;-73
2023/08/16 02:51:07;;;;;;;12.30;8.55;;;;;;;24.33;100.00;102945.47;5072556;28;20036;-73
2023/08/16 02:53:32;;;;;;;11.25;8.80;;;;;;;23.84;100.00;102806.88;5072886;28;20031;-73
2023/08/16 02:55:58;;;;;;;13.98;9.27;;;;;;;23.26;100.00;102771.78;5055173;28;20067;-74
2023/08/16 02:58:23;;;;;;;11.98;9.48;;;;;;;23.61;100.00;102881.41;5072831;28;20068;-73
2023/08/16 03:00:52;;;;;;;10.95;9.35;;;;;;;23.65;100.00;102899.41;5054514;28;20483;-73
2023/08/16 03:03:18;;;;;;;9.55;8.65;;;;;;;23.77;100.00;102950.13;5072773;28;20461;-73
2023/08/16 03:05:43;;;;;;;16.48;10.70;;;;;;;23.63;100.00;103097.91;5073023;28;20052;-74
2023/08/16 03:08:09;;;;;;;14.68;11.93;;;;;;;23.09;100.00;103096.09;5072810;28;20024;-74
2023/08/16 03:10:34;;;;;;;19.40;12.23;;;;;;;23.17;100.00;103199.72;5072074;28;20040;-73
2023/08/16 03:13:00;;;;;;;17.98;11.57;;;;;;;23.05;100.00;103200.06;5072902;28;20128;-73
2023/08/16 03:15:25;;;;;;;16.15;11.80;;;;;;;22.86;100.00;103268.94;5054614;28;20029;-74
2023/08/16 03:17:50;;;;;;;15.75;12.07;;;;;;;23.06;100.00;103335.03;5071668;28;20472;-74
2023/08/16 03:20:16;;;;;;;17.52;11.73;;;;;;;23.44;100.00;103387.75;5071971;28;20024;-73
2023/08/16 03:22:41;;;;;;;17.20;12.20;;;;;;;22.98;100.00;103367.28;5071340;28;20028;-72
2023/08/16 03:25:08;;;;;;;17.13;11.98;;;;;;;22.87;100.00;103371.91;5071891;28;20020;-74
2023/08/16 03:27:34;;;;;;;15.27;12.23;;;;;;;23.16;100.00;103435.19;5072651;28;20071;-74
2023/08/16 03:29:59;;;;;;;18.02;11.85;;;;;;;22.92;100.00;103424.53;5072366;28;20111;-74
2023/08/16 03:32:25;;;;;;;16.05;11.80;;;;;;;23.37;100.00;103511.78;5069944;28;20541;-74
2023/08/16 03:34:50;;;;;;;13.95;11.30;;;;;;;23.19;100.00;103507.00;5036158;28;20037;-75
2023/08/16 03:37:16;;;;;;;18.17;12.43;;;;;;;23.09;100.00;103489.94;5032299;28;20423;-75
2023/08/16 03:39:41;;;;;;;16.25;11.82;;;;;;;22.79;100.00;103428.34;5032176;28;20460;-75
2023/08/16 03:42:07;;;;;;;15.77;11.07;;;;;;;23.08;100.00;103477.81;5014444;28;20037;-75
2023/08/16 03:44:32;;;;;;;12.35;11.05;;;;;;;23.44;100.00;103533.25;5032854;28;20455;-78
2023/08/16 03:46:58;;;;;;;15.68;11.32;;;;;;;23.47;100.00;103539.25;5031317;28;20120;-74
2023/08/16 03:49:23;;;;;;;16.65;11.65;;;;;;;23.62;100.00;103531.06;5050291;28;20045;-77
2023/08/16 03:51:49;;;;;;;15.52;11.50;;;;;;;23.38;100.00;103445.94;5051616;28;20037;-76
2023/08/16 03:54:14;;;;;;;15.68;11.30;;;;;;;23.51;100.00;103491.47;5051783;28;20033;-78
2023/08/16 03:56:40;;;;;;;19.88;11.52;;;;;;;23.19;100.00;103398.75;5051708;28;20040;-75
2023/08/16 03:59:06;;;;;;;13.95;10.23;;;;;;;23.61;100.00;103396.78;5033820;28;20060;-76
2023/08/16 04:01:31;;;;;;;16.33;10.65;;;;;;;24.48;100.00;103364.72;5033804;28;20108;-75
2023/08/16 04:03:57;;;;;;;16.80;11.02;;;;;;;24.71;100.00;103305.00;5033723;28;20063;-73
2023/08/16 04:06:22;;;;;;;15.23;11.55;;;;;;;24.06;100.00;103270.72;5071882;28;20483;-79
2023/08/16 04:08:48;;;;;;;13.75;11.30;;;;;;;23.69;100.00;103316.03;5053623;28;20487;-73
2023/08/16 04:11:14;;;;;;;17.55;11.55;;;;;;;23.72;100.00;103360.97;5070546;28;20079;-75
2023/08/16 04:13:39;;;;;;;17.02;11.50;;;;;;;23.69;100.00;103368.00;5061672;28;20419;-75
2023/08/16 04:16:04;;;;;;;13.07;11.63;;;;;;;23.47;100.00;103356.50;5050252;28;20485;-71
2023/08/16 04:18:30;;;;;;;13.85;11.65;;;;;;;23.95;100.00;103396.69;5070818;28;20028;-74
2023/08/16 04:20:56;;;;;;;22.95;15.27;;;;;;;22.95;100.00;103352.66;5070495;28;20033;-73
2023/08/16 04:23:22;;;;;;;19.00;14.02;;;;;;;23.27;100.00;103433.16;5070298;28;20036;-72
2023/08/16 04:25:48;;;;;;;20.88;14.10;;;;;;;23.28;100.00;103491.19;5071077;28;20120;-73
2023/08/16 04:28:13;;;;;;;18.77;14.55;;;;;;;23.36;100.00;103512.66;5071121;28;20085;-75
2023/08/16 04:30:39;;;;;;;20.15;14.20;;;;;;;22.96;100.00;103498.88;5053055;28;20020;-73
2023/08/16 04:33:04;;;;;;;17.73;14.82;;;;;;;23.11;100.00;103493.34;5052338;28;20044;-73
2023/08/16 04:35:30;;;;;;;21.35;15.07;;;;;;;23.32;100.00;103513.63;5071160;28;20073;-74
2023/08/16 04:37:55;;;;;;;21.85;14.77;;;;;;;23.13;100.00;103473.38;5053342;28;20154;-75
2023/08/16 04:40:20;;;;;;;21.88;14.73;;;;;;;23.55;100.00;103493.09;5071408;28;20020;-75
2023/08/16 04:42:46;;;;;;;18.70;13.65;;;;;;;23.54;100.00;103494.00;5052576;28;20175;-74
2023/08/16 04:45:12;;;;;;;15.52;13.88;;;;;;;23.47;100.00;103482.09;5069588;28;20115;-73
2023/08/16 04:47:37;;;;;;;17.50;13.27;;;;;;;22.84;100.00;103411.75;5070144;28;20039;-73
2023/08/16 04:50:06;;;;;;;23.90;14.13;;;;;;;23.16;100.00;103403.16;5070954;28;20033;-75
2023/08/16 04:52:38;;;;;;;17.35;14.40;;;;;;;22.95;100.00;103363.03;5069380;28;20032;-75
2023/08/16 04:55:05;;;;;;;18.02;14.93;;;;;;;22.91;100.00;103291.31;5052786;28;20020;-74
2023/08/16 04:57:30;;;;;;;22.50;16.52;;;;;;;23.23;100.00;103313.84;5070218;28;20487;-74
2023/08/16 04:59:55;;;;;;;20.50;15.45;;;;;;;23.51;100.00;103338.16;5070736;28;20035;-75
2023/08/16 05:02:21;;;;;;;22.77;16.77;;;;;;;23.66;100.00;103295.31;5053707;28;20021;-75
2023/08/16 05:04:46;;;;;;;22.70;16.35;;;;;;;23.75;100.00;103211.88;5072919;28;20045;-76
2023/08/16 05:07:12;;;;;;;24.08;16.48;;;;;;;24.17;100.00;103236.53;5078231;28;20037;-75
2023/08/16 05:09:37;;;;;;;20.80;16.42;;;;;;;24.08;100.00;103141.47;5072005;28;20024;-76
2023/08/16 05:12:03;;;;;;;22.95;17.08;;;;;;;24.67;100.00;103061.28;5056176;28;20078;-76
2023/08/16 05:14:29;;;;;;;27.05;18.45;;;;;;;24.40;100.00;102868.91;5074357;28;20037;-76
2023/08/16 05:16:55;;;;;;;25.90;16.50;;;;;;;24.89;100.00;102656.00;5056809;28;20028;-75
2023/08/16 05:19:20;;;;;;;24.02;17.58;;;;;;;25.07;100.00;102154.28;5057117;28;20035;-76
2023/08/16 05:21:46;;;;;;;29.40;17.40;;;;;;;25.09;100.00;101944.13;5074950;28;20116;-77
2023/08/16 05:24:11;;;;;;;26.88;16.55;;;;;;;25.22;100.00;101460.66;5057364;28;20028;-74
2023/08/16 05:26:36;;;;;;;25.27;16.38;;;;;;;25.19;100.00;101393.16;5074593;28;20107;-73
2023/08/16 05:29:02;;;;;;;21.95;15.10;;;;;;;25.49;100.00;101403.34;5074244;28;20040;-74
2023/08/16 05:31:28;;;;;;;23.10;15.77;;;;;;;25.63;100.00;101404.06;5056227;28;20414;-74
2023/08/16 05:33:53;;;;;;;22.90;15.43;;;;;;;25.61;100.00;101405.13;5056363;28;20029;-74
2023/08/16 05:36:18;;;;;;;26.40;14.35;;;;;;;25.54;100.00;101420.31;5073461;28;20066;-73
2023/08/16 05:38:44;;;;;;;20.38;13.10;;;;;;;25.57;100.00;101388.84;5074117;28;20029;-73
2023/08/16 05:41:09;;;;;;;16.15;13.00;;;;;;;25.84;100.00;101359.22;5073528;28;20423;-73
2023/08/16 05:43:35;;;;;;;18.70;11.77;;;;;;;25.88;100.00;101301.56;5073876;28;20028;-76
2023/08/16 05:46:00;;;;;;;18.63;12.43;;;;;;;25.98;100.00;101315.63;5055951;28;20059;-74
2023/08/16 05:48:25;;;;;;;15.23;11.88;;;;;;;25.87;100.00;101242.53;5074068;28;20467;-73
2023/08/16 05:50:51;;;;;;;14.93;10.50;;;;;;;26.01;100.00;101218.91;5073682;28;20024;-73
2023/08/16 05:53:16;;;;;;;18.25;12.82;;;;;;;25.94;100.00;101207.28;5073600;28;20548;-73
2023/08/16 05:55:42;;;;;;;19.83;11.77;;;;;;;26.06;100.00;101211.63;5073732;28;20098;-73
2023/08/16 05:58:08;;;;;;;17.58;12.65;;;;;;;26.04;100.00;101220.47;5073632;28;20021;-72
2023/08/16 06:00:33;;;;;;;16.00;12.10;;;;;;;26.15;100.00;101197.06;5055315;28;20027;-76
2023/08/16 06:02:59;;;;;;;17.88;12.52;;;;;;;26.57;100.00;101246.09;5056041;28;20064;-73
2023/08/16 06:05:25;;;;;;;21.80;12.73;;;;;;;26.63;100.00;101254.31;5073364;28;20052;-74
2023/08/16 06:07:50;;;;;;;18.35;11.63;;;;;;;26.66;100.00;101250.66;5073620;28;20740;-75
2023/08/16 06:10:16;;;;;;;19.75;11.65;;;;;;;26.67;100.00;101214.91;5073175;28;20066;-74
2023/08/16 06:12:41;;;;;;;16.90;11.32;;;;;;;26.67;100.00;101154.88;5073147;28;20115;-74
2023/08/16 06:15:11;;;;;;;16.60;11.35;;;;;;;26.82;100.00;101161.59;5072950;28;20037;-75
2023/08/16 06:17:38;;;;;;;15.15;11.02;;;;;;;26.70;100.00;101142.47;5055624;28;20096;-75
2023/08/16 06:20:07;;;;;;;18.83;12.02;;;;;;;26.39;100.00;101088.31;5073199;28;20033;-75
2023/08/16 06:22:37;;;;;;;16.15;12.05;;;;;;;26.75;100.00;101135.13;5072429;28;20037;-75
2023/08/16 06:25:07;;;;;;;17.38;11.00;;;;;;;26.48;100.00;101062.34;5055340;28;20123;-75
2023/08/16 06:27:33;;;;;;;15.55;11.48;;;;;;;26.92;100.00;101081.63;5054914;28;20517;-73
2023/08/16 06:29:59;;;;;;;16.33;11.38;;;;;;;26.87;100.00;101053.25;5073184;28;20111;-75
2023/08/16 06:32:24;;;;;;;15.18;12.00;;;;;;;26.81;100.00;100987.63;5073338;28;20036;-74
2023/08/16 06:34:50;;;;;;;12.88;10.52;;;;;;;26.99;100.00;101025.34;5055189;28;20024;-74
2023/08/16 06:37:15;;;;;;;17.75;11.68;;;;;;;27.11;100.00;101040.88;5054376;28;20143;-74
2023/08/16 06:39:42;;;;;;;17.55;11.90;;;;;;;27.05;100.00;101057.03;5072557;28;20040;-74
2023/08/16 06:42:09;;;;;;;19.35;10.65;;;;;;;26.86;100.00;101035.09;5056432;28;20487;-74
2023/08/16 06:44:35;;;;;;;23.90;10.75;;;;;;;27.22;100.00;100999.03;5073339;28;20021;-73
2023/08/16 06:47:00;;;;;;;17.55;10.55;;;;;;;27.67;100.00;101004.09;5072687;28;20029;-73
2023/08/16 06:49:26;;;;;;;17.55;11.73;;;;;;;27.25;100.00;100953.56;5072843;28;20032;-74
2023/08/16 06:51:51;;;;;;;22.92;10.85;;;;;;;27.49;100.00;100996.00;5054698;28;20406;-73
2023/08/16 06:54:17;;;;;;;18.45;10.90;;;;;;;27.21;100.00;100881.63;5072520;28;20032;-74
2023/08/16 06:56:42;;;;;;;16.73;10.85;;;;;;;27.54;100.00;100888.44;5072397;28;20025;-74
2023/08/16 06:59:08;;;;;;;18.27;9.77;;;;;;;27.91;100.00;100952.38;5072916;28;20035;-74
2023/08/16 07:01:33;;;;;;;16.60;9.23;;;;;;;27.92;100.00;100880.78;5072713;28;20451;-74
2023/08/16 07:03:59;;;;;;;15.20;8.27;;;;;;;28.09;100.00;100848.81;5054623;28;20524;-76
2023/08/16 07:06:26;;;;;;;11.60;7.82;;;;;;;28.42;100.00;100869.44;5072072;28;20049;-74
2023/08/16 07:08:52;;;;;;;16.25;8.45;;;;;;;28.67;100.00;100860.25;5070989;28;20067;-74
2023/08/16 07:11:17;;;;;;;15.80;8.52;;;;;;;29.07;100.00;100826.88;5072164;28;20056;-74
2023/08/16 07:13:43;;;;;;;13.02;8.48;;;;;;;29.82;100.00;100774.38;5072022;28;20111;-75
2023/08/16 07:16:08;;;;;;;11.05;7.60;;;;;;;30.28;100.00;100742.75;5071782;28;20484;-73
2023/08/16 07:18:34;;;;;;;11.13;7.60;;;;;;;30.68;100.00;100711.53;5072675;28;20037;-74
2023/08/16 07:20:59;;;;;;;12.75;8.10;;;;;;;29.93;100.00;100708.59;5071557;28;20024;-75
2023/08/16 07:23:25;;;;;;;12.70;7.75;;;;;;;30.47;100.00;100679.56;5071662;28;20415;-75
2023/08/16 07:25:56;;;;;;;13.18;7.95;;;;;;;29.93;100.00;100629.91;5054009;28;20036;-75
2023/08/16 07:28:22;;;;;;;12.52;7.68;;;;;;;29.29;100.00;100650.16;5054119;28;20082;-75
2023/08/16 07:30:48;;;;;;;13.35;7.47;;;;;;;29.37;100.00;100639.78;5072040;28;20033;-74
2023/08/16 07:33:13;;;;;;;14.80;8.18;;;;;;;30.40;100.00;100683.78;5053446;28;20035;-74
2023/08/16 07:35:38;;;;;;;15.13;9.00;;;;;;;30.77;100.00;100670.41;5071731;28;20029;-75
2023/08/16 07:38:04;;;;;;;13.20;8.25;;;;;;;30.82;100.00;100678.66;5071424;28;20020;-75
2023/08/16 07:40:29;;;;;;;12.75;7.78;;;;;;;30.12;100.00;100616.59;5053344;28;20123;-74
2023/08/16 07:42:55;;;;;;;15.98;7.65;;;;;;;30.49;100.00;100645.25;5062515;28;20025;-75
2023/08/16 07:45:21;;;;;;;9.68;7.70;;;;;;;29.83;100.00;100616.03;5050627;28;20036;-74
2023/08/16 07:47:47;;;;;;;11.10;8.88;;;;;;;29.05;100.00;100641.00;5051653;28;20028;-74
2023/08/16 07:50:12;;;;;;;15.35;8.30;;;;;;;28.47;100.00;100651.75;5051281;28;20036;-74
2023/08/16 07:52:37;;;;;;;16.85;9.25;;;;;;;28.48;100.00;100635.09;5033158;28;20032;-73
2023/08/16 07:55:03;;;;;;;15.40;8.77;;;;;;;28.98;100.00;100710.66;5051134;28;20032;-73
2023/08/16 07:57:29;;;;;;;17.33;9.07;;;;;;;28.96;100.00;100719.63;5051195;28;20033;-73
2023/08/16 07:59:54;;;;;;;16.73;9.55;;;;;;;28.97;100.00;100716.88;5050703;28;20028;-73
2023/08/16 08:02:21;;;;;;;16.13;9.38;;;;;;;28.95;100.00;100708.34;5050514;28;20028;-73
2023/08/16 08:04:46;;;;;;;19.83;8.73;;;;;;;28.89;100.00;100650.44;5033236;28;20045;-74
2023/08/16 08:07:12;;;;;;;13.48;8.38;;;;;;;29.08;100.00;100698.34;5050607;28;20099;-73
2023/08/16 08:09:38;;;;;;;13.93;9.05;;;;;;;28.42;100.00;100654.81;5050572;28;20025;-73
2023/08/16 08:12:03;;;;;;;12.73;7.88;;;;;;;29.00;100.00;100702.63;5051034;28;20033;-73
2023/08/16 08:14:29;;;;;;;15.75;8.65;;;;;;;28.79;100.00;100657.50;5050976;28;20025;-73
2023/08/16 08:16:56;;;;;;;13.73;7.95;;;;;;;29.08;100.00;100693.09;5050596;28;20037;-73
2023/08/16 08:19:21;;;;;;;11.60;8.10;;;;;;;29.22;100.00;100693.66;5050743;28;20111;-75
2023/08/16 08:21:47;;;;;;;15.57;8.35;;;;;;;29.32;100.00;100626.28;5051412;28;20104;-73
2023/08/16 08:24:12;;;;;;;15.23;7.88;;;;;;;29.29;100.00;100626.56;5053463;28;20385;-74
2023/08/16 08:26:37;;;;;;;16.60;8.63;;;;;;;29.89;100.00;100668.69;5052079;28;20557;-74
2023/08/16 08:29:03;;;;;;;13.85;8.02;;;;;;;29.04;100.00;100634.09;5050988;28;20024;-74
2023/08/16 08:31:29;;;;;;;13.50;8.30;;;;;;;29.38;100.00;100680.72;5050932;28;20036;-74
2023/08/16 08:33:55;;;;;;;14.00;8.30;;;;;;;29.07;100.00;100695.88;5051162;28;20036;-73
2023/08/16 08:36:20;;;;;;;16.15;8.73;;;;;;;29.27;100.00;100678.31;5050665;28;20068;-73
2023/08/16 08:38:46;;;;;;;14.23;7.95;;;;;;;28.57;100.00;100602.88;5032186;28;20057;-73
2023/08/16 08:41:11;;;;;;;15.70;8.18;;;;;;;28.88;100.00;100652.22;5033043;28;20074;-74
2023/08/16 08:43:37;;;;;;;13.90;8.43;;;;;;;29.39;100.00;100688.47;5050790;28;20475;-74
2023/08/16 08:46:05;;;;;;;14.40;8.63;;;;;;;28.97;100.00;100690.69;5033765;28;20033;-73
2023/08/16 08:48:31;;;;;;;18.67;8.77;;;;;;;29.08;100.00;100693.09;5054472;28;20033;-73
2023/08/16 08:50:58;;;;;;;18.33;8.43;;;;;;;29.15;100.00;100687.31;5054035;28;20044;-73
2023/08/16 08:53:25;;;;;;;12.05;8.10;;;;;;;28.96;100.00;100651.53;5036202;28;20036;-72
2023/08/16 08:55:55;;;;;;;12.55;7.82;;;;;;;29.01;100.00;100689.44;5054290;28;20087;-73
2023/08/16 08:58:22;;;;;;;13.80;8.00;;;;;;;29.18;100.00;100690.47;5054650;28;20035;-73
2023/08/16 09:00:53;;;;;;;14.65;8.55;;;;;;;29.06;100.00;100626.94;5036561;28;20029;-72
2023/08/16 09:03:22;;;;;;;15.18;9.48;;;;;;;29.29;100.00;100679.00;5054139;28;20029;-73
2023/08/16 09:05:52;;;;;;;12.32;8.80;;;;;;;29.12;100.00;100628.13;5054190;28;20145;-72
2023/08/16 09:08:18;;;;;;;13.97;8.80;;;;;;;29.21;100.00;100624.69;5054371;28;20598;-73
2023/08/16 09:10:45;;;;;;;13.88;8.30;;;;;;;29.53;100.00;100656.53;5035878;28;20293;-72
2023/08/16 09:13:11;;;;;;;17.05;8.20;;;;;;;29.35;100.00;100616.34;5053788;28;20044;-73
2023/08/16 09:15:38;;;;;;;12.32;8.35;;;;;;;29.70;100.00;100667.97;5054142;28;20040;-72
2023/08/16 09:18:11;;;;;;;16.48;9.00;;;;;;;29.53;100.00;100666.16;5054144;28;20036;-72
2023/08/16 09:20:37;;;;;;;15.20;8.50;;;;;;;29.55;100.00;100657.19;5053869;28;20053;-74
2023/08/16 09:23:03;;;;;;;10.05;7.60;;;;;;;29.23;100.00;100654.19;5035924;28;20064;-73
2023/08/16 09:25:29;;;;;;;13.43;8.63;;;;;;;29.60;100.00;100661.97;5036022;28;20057;-72
2023/08/16 09:27:55;;;;;;;13.48;8.57;;;;;;;30.14;100.00;100633.03;4697630;28;9999980;-71
2023/08/16 09:30:23;;;;;;;11.90;7.47;;;;;;;29.86;100.00;100529.16;5049664;28;20145;-71
2023/08/16 09:32:48;;;;;;;14.77;7.35;;;;;;;30.55;100.00;100571.13;5032410;28;20083;-72
2023/08/16 09:35:16;;;;;;;15.25;8.65;;;;;;;30.60;100.00;100547.84;5039694;28;20086;-71
2023/08/16 09:37:44;;;;;;;11.05;7.82;;;;;;;31.27;100.00;100545.16;5070580;28;20024;-71
2023/08/16 09:40:11;;;;;;;12.75;8.02;;;;;;;30.91;100.00;100558.66;5070403;28;20487;-72
2023/08/16 09:42:36;;;;;;;14.32;7.40;;;;;;;30.42;100.00;100575.97;5070469;28;20028;-70
2023/08/16 09:45:02;;;;;;;10.38;6.95;;;;;;;30.34;100.00;100583.81;5070441;28;20410;-72
2023/08/16 09:47:29;;;;;;;12.88;7.63;;;;;;;29.87;100.00;100521.13;5070344;28;20051;-72
2023/08/16 09:49:55;;;;;;;12.30;7.03;;;;;;;30.41;100.00;100520.00;5052362;28;20487;-71
2023/08/16 09:52:20;;;;;;;13.25;7.53;;;;;;;30.47;100.00;100573.69;5073862;28;20033;-73
2023/08/16 09:54:48;;;;;;;14.10;7.88;;;;;;;30.34;100.00;100550.50;5073742;28;20059;-73
2023/08/16 09:57:14;;;;;;;16.38;7.95;;;;;;;30.42;100.00;100566.31;5071868;28;20037;-73
2023/08/16 09:59:41;;;;;;;11.35;7.20;;;;;;;30.61;100.00;100513.56;5073667;28;20086;-74
2023/08/16 10:02:11;;;;;;;10.25;7.40;;;;;;;31.49;100.00;100552.44;5072372;28;20083;-73
2023/08/16 10:04:38;;;;;;;9.38;6.90;;;;;;;31.23;100.00;100571.91;5073073;28;20040;-74
2023/08/16 10:07:06;;;;;;;13.77;6.63;;;;;;;31.43;100.00;100554.91;5072394;28;20036;-73
2023/08/16 10:09:35;;;;;;;10.18;7.03;;;;;;;31.18;100.00;100550.56;5054967;28;20029;-74
2023/08/16 10:12:02;;;;;;;15.02;6.88;;;;;;;31.58;100.00;100534.84;5072399;28;20025;-74
2023/08/16 10:14:29;;;;;;;10.27;6.68;;;;;;;31.13;100.00;100560.72;5072611;28;20052;-74
2023/08/16 10:16:59;;;;;;;11.80;7.88;;;;;;;31.58;100.00;100559.34;5073171;28;20042;-74
2023/08/16 10:19:29;;;;;;;10.38;6.75;;;;;;;31.94;100.00;100540.63;5072929;28;20028;-74
2023/08/16 10:21:56;;;;;;;14.07;7.05;;;;;;;31.52;100.00;100552.09;5072870;28;20033;-72
2023/08/16 10:24:22;;;;;;;12.15;6.70;;;;;;;31.07;100.00;100567.44;5072763;28;20032;-74
2023/08/16 10:26:50;;;;;;;9.48;6.72;;;;;;;30.54;100.00;100519.59;5073321;28;20078;-73
2023/08/16 10:29:22;;;;;;;10.80;6.57;;;;;;;30.23;100.00;100521.84;5054764;28;20043;-74
2023/08/16 10:31:51;;;;;;;10.85;6.85;;;;;;;31.15;100.00;100569.25;5072567;28;20020;-71
2023/08/16 10:34:20;;;;;;;12.63;7.13;;;;;;;31.40;100.00;100492.09;5072722;28;20032;-70
2023/08/16 10:36:47;;;;;;;12.57;7.28;;;;;;;31.09;100.00;100484.00;5072525;28;20036;-71
2023/08/16 10:39:23;;;;;;;11.15;6.75;;;;;;;32.43;100.00;100526.34;5072852;28;20074;-71
2023/08/16 10:41:53;;;;;;;14.40;6.80;;;;;;;32.91;100.00;100484.00;5071900;28;20507;-71
2023/08/16 10:44:23;;;;;;;12.53;6.57;;;;;;;32.45;100.00;100503.34;5072511;28;20031;-72
2023/08/16 10:46:50;;;;;;;8.35;6.43;;;;;;;32.22;100.00;100515.56;5054374;28;20480;-73
2023/08/16 10:49:16;;;;;;;12.35;7.15;;;;;;;32.23;100.00;100483.78;5072322;28;20040;-71
2023/08/16 10:51:52;;;;;;;11.30;6.50;;;;;;;32.70;100.00;100493.53;5072305;28;20029;-72
2023/08/16 10:54:19;;;;;;;10.07;6.25;;;;;;;32.94;100.00;100459.91;5072012;28;20490;-72
2023/08/16 10:56:50;;;;;;;9.45;6.72;;;;;;;33.19;100.00;100513.34;5072210;28;20044;-72
2023/08/16 10:59:16;;;;;;;;;;;;;;;33.11;100.00;100500.22;5072736;28;20032;-72
2023/08/16 11:01:50;;;;;;;16.33;6.63;;;;;;;32.64;100.00;100499.47;5053119;28;19913;-71
2023/08/16 11:04:16;;;;;;;14.43;6.60;;;;;;;32.86;100.00;100517.16;5052207;28;20025;-74